Molengracht — PCJG — position and weather

sailwx.info

Track history (hours):
 
Tides and Currents Weather Stations Pressure Air Temp Water Temp Dewpoint Dewpoint Depression Visibility Wind Speed Wind Dir Waves Ship Positions

Molengracht

Last reported at 2014-Jul-23 15:31 UTC. Time now 2014-Jul-25 19:38 UTC.
Position N 30°55' E 122°42'.

Length 143 m; draft 6.5 m.

Type: Cargo ship. MMSI: 246770000.

Date/timePositionNaut miles runAvg speedWind from/ knotsBaromVisibWave heightAir tempDewpointWater temp
2014-Jul-23 15:31N 30°55' E 122°42'1312.7
2014-Jul-23 14:31N 30°51' E 122°28'1211.6
2014-Jul-23 13:31N 30°44' E 122°17'1111.7
2014-Jul-23 12:33N 30°34' E 122°12'9 9.2
2014-Jul-23 11:33N 30°31' E 122°02'11 9.6
2014-Jul-23 10:21N 30°24' E 121°51'2110.9
2014-Jul-23 08:28N 30°04' E 121°48'7 7.3
2014-Jul-23 07:33N 29°58' E 121°51'5 0.6
2014-Jul-22 23:33N 29°55' E 121°55'8 7.8
2014-Jul-22 22:33N 30°00' E 121°48'10 8.4
2014-Jul-22 21:21N 30°10' E 121°46'1 0.5
2014-Jul-22 19:08N 30°11' E 121°46'0 0.0
2014-Jul-22 18:32N 30°11' E 121°46'0 0.0
2014-Jul-22 17:26N 30°11' E 121°46'0 0.0
2014-Jul-22 16:32N 30°11' E 121°46'1 0.3
2014-Jul-22 14:30N 30°12' E 121°46'12 9.8
2014-Jul-22 13:16N 30°24' E 121°48'912.4
2014-Jul-22 12:32N 30°30' E 121°56'1313.2
2014-Jul-22 11:33N 30°33' E 122°11'1111.5
2014-Jul-22 10:33N 30°44' E 122°15'1212.5
2014-Jul-22 09:33N 30°53' E 122°25'12 9.6
2014-Jul-22 08:20N 31°04' E 122°28'3311.0
2014-Jul-22 05:18N 31°12' E 121°50'1114.4
2014-Jul-22 04:33N 31°20' E 121°41'1211.9
2014-Jul-22 03:33N 31°26' E 121°29'7 6.8
2014-Jul-22 02:30N 31°30' E 121°22'0 0.0
2014-Jul-22 01:30N 31°30' E 121°22'0 0.0
2014-Jul-22 00:30N 31°30' E 121°22'0 0.0
2014-Jul-21 23:12N 31°30' E 121°22'0 0.0
2014-Jul-21 22:30N 31°30' E 121°22'0 0.0
2014-Jul-21 21:30N 31°30' E 121°22'0 0.0
2014-Jul-21 20:30N 31°30' E 121°22'0 0.0
2014-Jul-21 20:12N 31°30' E 121°22'0 0.0
2014-Jul-21 19:30N 31°30' E 121°22'0 0.0
2014-Jul-21 18:24N 31°30' E 121°22'0 0.0
2014-Jul-21 17:30N 31°30' E 121°22'0 0.0
2014-Jul-21 16:30N 31°30' E 121°22'0 0.0
2014-Jul-21 15:30N 31°30' E 121°22'0 0.0
2014-Jul-21 14:30N 31°30' E 121°22'0 0.0
2014-Jul-21 13:24N 31°30' E 121°22'0 0.0
2014-Jul-21 12:05N 31°30' E 121°22'0 0.0
2014-Jul-21 11:33N 31°30' E 121°22'0 0.0
2014-Jul-21 10:17N 31°30' E 121°22'0 0.0
2014-Jul-21 09:30N 31°30' E 121°22'0 0.0
2014-Jul-21 08:29N 31°30' E 121°22'0 0.0
2014-Jul-21 07:17N 31°30' E 121°22'0 0.0
2014-Jul-21 06:12N 31°30' E 121°22'0 0.0
2014-Jul-21 05:05N 31°30' E 121°22'0 0.0
2014-Jul-21 04:29N 31°30' E 121°22'0 0.0
2014-Jul-21 03:30N 31°30' E 121°22'0 0.0
2014-Jul-21 02:30N 31°30' E 121°22'0 0.0
2014-Jul-21 01:17N 31°30' E 121°22'0 0.0
2014-Jul-21 00:30N 31°30' E 121°22'0 0.0
2014-Jul-20 23:23N 31°30' E 121°22'0 0.0
2014-Jul-20 22:32N 31°30' E 121°22'0 0.0
2014-Jul-20 21:30N 31°30' E 121°22'0 0.0
2014-Jul-20 20:29N 31°30' E 121°22'0 0.0
2014-Jul-20 19:17N 31°30' E 121°22'0 0.0
2014-Jul-20 18:29N 31°30' E 121°22'0 0.0
2014-Jul-20 17:29N 31°30' E 121°22'0 0.0
2014-Jul-20 16:29N 31°30' E 121°22'0 0.0
2014-Jul-20 15:29N 31°30' E 121°22'0 0.0
2014-Jul-20 14:23N 31°30' E 121°22'0 0.0
2014-Jul-20 13:23N 31°30' E 121°22'0 0.0
2014-Jul-20 12:33N 31°30' E 121°22'3 3.3
2014-Jul-20 11:33N 31°29' E 121°26'1110.7
2014-Jul-20 10:33N 31°23' E 121°36'9 9.3
2014-Jul-20 09:33N 31°17' E 121°45'1712.8
2014-Jul-20 08:16N 31°06' E 121°59'1113.3
2014-Jul-20 07:28N 31°03' E 122°11'8 9.3
2014-Jul-20 06:33N 31°02' E 122°21'11 0.3
2014-Jul-18 15:32N 31°02' E 122°34'  
Track history (hours):
 
Tides and Currents Weather Stations Pressure Air Temp Water Temp Dewpoint Dewpoint Depression Visibility Wind Speed Wind Dir Waves Ship Positions

Molengracht

Last reported at 2014-Jul-23 15:31 UTC. Time now 2014-Jul-25 19:38 UTC.
Position N 30°55' E 122°42'.

Length 143 m; draft 6.5 m.

Type: Cargo ship. MMSI: 246770000.

Date/timePositionNaut miles runAvg speedWind from/ knotsBaromVisibWave heightAir tempDewpointWater temp
2014-Jul-23 15:31N 30°55' E 122°42'1312.7
2014-Jul-23 14:31N 30°51' E 122°28'1211.6
2014-Jul-23 13:31N 30°44' E 122°17'1111.7
2014-Jul-23 12:33N 30°34' E 122°12'9 9.2
2014-Jul-23 11:33N 30°31' E 122°02'11 9.6
2014-Jul-23 10:21N 30°24' E 121°51'2110.9
2014-Jul-23 08:28N 30°04' E 121°48'7 7.3
2014-Jul-23 07:33N 29°58' E 121°51'5 0.6
2014-Jul-22 23:33N 29°55' E 121°55'8 7.8
2014-Jul-22 22:33N 30°00' E 121°48'10 8.4
2014-Jul-22 21:21N 30°10' E 121°46'1 0.5
2014-Jul-22 19:08N 30°11' E 121°46'0 0.0
2014-Jul-22 18:32N 30°11' E 121°46'0 0.0
2014-Jul-22 17:26N 30°11' E 121°46'0 0.0
2014-Jul-22 16:32N 30°11' E 121°46'1 0.3
2014-Jul-22 14:30N 30°12' E 121°46'12 9.8
2014-Jul-22 13:16N 30°24' E 121°48'912.4
2014-Jul-22 12:32N 30°30' E 121°56'1313.2
2014-Jul-22 11:33N 30°33' E 122°11'1111.5
2014-Jul-22 10:33N 30°44' E 122°15'1212.5
2014-Jul-22 09:33N 30°53' E 122°25'12 9.6
2014-Jul-22 08:20N 31°04' E 122°28'3311.0
2014-Jul-22 05:18N 31°12' E 121°50'1114.4
2014-Jul-22 04:33N 31°20' E 121°41'1211.9
2014-Jul-22 03:33N 31°26' E 121°29'7 6.8
2014-Jul-22 02:30N 31°30' E 121°22'0 0.0
2014-Jul-22 01:30N 31°30' E 121°22'0 0.0
2014-Jul-22 00:30N 31°30' E 121°22'0 0.0
2014-Jul-21 23:12N 31°30' E 121°22'0 0.0
2014-Jul-21 22:30N 31°30' E 121°22'0 0.0
2014-Jul-21 21:30N 31°30' E 121°22'0 0.0
2014-Jul-21 20:30N 31°30' E 121°22'0 0.0
2014-Jul-21 20:12N 31°30' E 121°22'0 0.0
2014-Jul-21 19:30N 31°30' E 121°22'0 0.0
2014-Jul-21 18:24N 31°30' E 121°22'0 0.0
2014-Jul-21 17:30N 31°30' E 121°22'0 0.0
2014-Jul-21 16:30N 31°30' E 121°22'0 0.0
2014-Jul-21 15:30N 31°30' E 121°22'0 0.0
2014-Jul-21 14:30N 31°30' E 121°22'0 0.0
2014-Jul-21 13:24N 31°30' E 121°22'0 0.0
2014-Jul-21 12:05N 31°30' E 121°22'0 0.0
2014-Jul-21 11:33N 31°30' E 121°22'0 0.0
2014-Jul-21 10:17N 31°30' E 121°22'0 0.0
2014-Jul-21 09:30N 31°30' E 121°22'0 0.0
2014-Jul-21 08:29N 31°30' E 121°22'0 0.0
2014-Jul-21 07:17N 31°30' E 121°22'0 0.0
2014-Jul-21 06:12N 31°30' E 121°22'0 0.0
2014-Jul-21 05:05N 31°30' E 121°22'0 0.0
2014-Jul-21 04:29N 31°30' E 121°22'0 0.0
2014-Jul-21 03:30N 31°30' E 121°22'0 0.0
2014-Jul-21 02:30N 31°30' E 121°22'0 0.0
2014-Jul-21 01:17N 31°30' E 121°22'0 0.0
2014-Jul-21 00:30N 31°30' E 121°22'0 0.0
2014-Jul-20 23:23N 31°30' E 121°22'0 0.0
2014-Jul-20 22:32N 31°30' E 121°22'0 0.0
2014-Jul-20 21:30N 31°30' E 121°22'0 0.0
2014-Jul-20 20:29N 31°30' E 121°22'0 0.0
2014-Jul-20 19:17N 31°30' E 121°22'0 0.0
2014-Jul-20 18:29N 31°30' E 121°22'0 0.0
2014-Jul-20 17:29N 31°30' E 121°22'0 0.0
2014-Jul-20 16:29N 31°30' E 121°22'0 0.0
2014-Jul-20 15:29N 31°30' E 121°22'0 0.0
2014-Jul-20 14:23N 31°30' E 121°22'0 0.0
2014-Jul-20 13:23N 31°30' E 121°22'0 0.0
2014-Jul-20 12:33N 31°30' E 121°22'3 3.3
2014-Jul-20 11:33N 31°29' E 121°26'1110.7
2014-Jul-20 10:33N 31°23' E 121°36'9 9.3
2014-Jul-20 09:33N 31°17' E 121°45'1712.8
2014-Jul-20 08:16N 31°06' E 121°59'1113.3
2014-Jul-20 07:28N 31°03' E 122°11'8 9.3
2014-Jul-20 06:33N 31°02' E 122°21'11 0.3
2014-Jul-18 15:32N 31°02' E 122°34'  

Dump ship's entire track history